createdAt,value
2023-02-19T00:02:32.391Z,99873.09
2023-02-19T00:05:35.747Z,99880.16
2023-02-19T00:08:40.001Z,99883.22
2023-02-19T00:11:43.671Z,99888.09
2023-02-19T00:14:48.080Z,99888.41
2023-02-19T00:17:51.315Z,99889.19
2023-02-19T00:20:58.622Z,99890.56
2023-02-19T00:24:04.450Z,99891.59
2023-02-19T00:27:07.389Z,99895.31
2023-02-19T00:30:12.189Z,99890.72
2023-02-19T00:33:16.386Z,99900.88
2023-02-19T00:36:20.402Z,99905.16
2023-02-19T00:39:23.456Z,99901.06
2023-02-19T00:42:27.710Z,99907.28
2023-02-19T00:45:30.868Z,99908.69
2023-02-19T00:48:34.902Z,99909.22
2023-02-19T00:51:38.583Z,99901.44
2023-02-19T00:54:42.282Z,99897.62
2023-02-19T00:57:45.319Z,99905.41
2023-02-19T01:00:48.763Z,99889.19
2023-02-19T01:03:51.721Z,99895.78
2023-02-19T01:06:55.179Z,99891.47
2023-02-19T01:09:58.355Z,99892.50
2023-02-19T01:13:01.603Z,99890.19
2023-02-19T01:16:12.932Z,99896.34
2023-02-19T01:19:16.332Z,99893.78
2023-02-19T01:22:20.494Z,99878.81
2023-02-19T01:25:23.879Z,99885.38
2023-02-19T01:28:27.765Z,99885.41
2023-02-19T01:31:31.188Z,99877.88
2023-02-19T01:34:34.814Z,99868.56
2023-02-19T01:37:38.264Z,99868.19
2023-02-19T01:40:41.178Z,99862.38
2023-02-19T01:43:57.313Z,99867.38
2023-02-19T01:47:01.679Z,99877.88
2023-02-19T01:50:05.276Z,99880.50
2023-02-19T01:53:09.824Z,99876.50
2023-02-19T01:56:17.964Z,99873.69
2023-02-19T01:59:20.927Z,99869.81
2023-02-19T02:02:27.476Z,99864.50
2023-02-19T02:05:50.962Z,99853.69
2023-02-19T02:09:15.707Z,99861.06
2023-02-19T02:12:19.007Z,99863.19
2023-02-19T02:15:25.159Z,99851.59
2023-02-19T02:18:54.257Z,99857.84
2023-02-19T02:22:17.070Z,99852.03
2023-02-19T02:25:32.870Z,99856.16
2023-02-19T02:29:08.282Z,99852.97
2023-02-19T02:32:22.177Z,99839.38
2023-02-19T02:35:30.650Z,99832.31
2023-02-19T02:38:39.850Z,99828.25
2023-02-19T02:42:09.944Z,99818.56
2023-02-19T02:45:37.046Z,99838.38
2023-02-19T02:48:58.205Z,99834.34
2023-02-19T02:52:22.023Z,99842.63
2023-02-19T02:55:25.589Z,99848.97
2023-02-19T02:58:29.488Z,99855.50
2023-02-19T03:02:14.261Z,99853.25
2023-02-19T03:05:41.364Z,99842.31
2023-02-19T03:08:49.816Z,99851.00
2023-02-19T03:12:12.987Z,99848.31
2023-02-19T03:15:35.836Z,99855.81
2023-02-19T03:18:59.793Z,99849.19
2023-02-19T03:22:11.818Z,99847.50
2023-02-19T03:25:40.695Z,99846.19
2023-02-19T03:29:04.414Z,99843.63
2023-02-19T03:32:16.960Z,99835.91
2023-02-19T03:35:23.946Z,99840.59
2023-02-19T03:38:37.054Z,99850.59
2023-02-19T03:41:54.997Z,99865.75
2023-02-19T03:45:26.748Z,99864.13
2023-02-19T03:48:37.444Z,99859.19
2023-02-19T03:51:45.180Z,99849.03
2023-02-19T03:55:00.955Z,99839.38
2023-02-19T03:58:12.443Z,99837.88
2023-02-19T04:01:27.976Z,99843.00
2023-02-19T04:04:37.809Z,99848.00
2023-02-19T04:07:45.052Z,99856.00
2023-02-19T04:10:49.960Z,99851.66
2023-02-19T04:14:06.795Z,99843.84
2023-02-19T04:17:17.713Z,99841.34
2023-02-19T04:20:22.442Z,99842.91
2023-02-19T04:23:27.194Z,99839.16
2023-02-19T04:26:31.132Z,99841.84
2023-02-19T04:29:34.487Z,99846.13
2023-02-19T04:32:37.424Z,99840.59
2023-02-19T04:35:40.772Z,99835.72
2023-02-19T04:38:43.807Z,99838.94
2023-02-19T04:41:47.013Z,99845.34
2023-02-19T04:44:49.940Z,99843.19
2023-02-19T04:47:53.886Z,99843.75
2023-02-19T04:50:57.282Z,99836.84
2023-02-19T04:54:00.596Z,99826.53
2023-02-19T04:57:03.618Z,99839.09
2023-02-19T05:00:08.301Z,99840.78
2023-02-19T05:03:11.512Z,99837.72
2023-02-19T05:06:15.069Z,99828.56
2023-02-19T05:09:18.565Z,99824.53
2023-02-19T05:12:21.974Z,99821.97
2023-02-19T05:15:25.042Z,99815.72
2023-02-19T05:18:30.255Z,99822.50
2023-02-19T05:21:33.232Z,99814.94
2023-02-19T05:24:37.614Z,99821.31
2023-02-19T05:27:40.601Z,99815.47
2023-02-19T05:30:53.447Z,99820.50
2023-02-19T05:33:58.299Z,99830.41
2023-02-19T05:37:01.398Z,99822.31
2023-02-19T05:40:06.071Z,99830.34
2023-02-19T05:43:09.679Z,99836.41
2023-02-19T05:46:14.915Z,99820.59
2023-02-19T05:49:18.249Z,99824.94
2023-02-19T05:52:21.421Z,99820.94
2023-02-19T05:55:24.720Z,99820.31
2023-02-19T05:58:28.048Z,99839.94
2023-02-19T06:01:31.642Z,99825.84
2023-02-19T06:04:34.969Z,99824.47
2023-02-19T06:07:39.680Z,99815.75
2023-02-19T06:10:43.504Z,99814.53
2023-02-19T06:13:46.579Z,99820.72
2023-02-19T06:16:49.800Z,99817.16
2023-02-19T06:19:52.713Z,99819.94
2023-02-19T06:22:57.401Z,99817.56
2023-02-19T06:26:07.820Z,99818.50
2023-02-19T06:29:11.456Z,99813.22
2023-02-19T06:32:15.002Z,99820.88
2023-02-19T06:35:18.326Z,99813.19
2023-02-19T06:38:22.507Z,99819.56
2023-02-19T06:41:26.926Z,99831.41
2023-02-19T06:44:29.847Z,99840.72
2023-02-19T06:47:33.289Z,99825.50
2023-02-19T06:50:36.179Z,99839.38
2023-02-19T06:53:39.438Z,99841.03
2023-02-19T06:56:42.486Z,99844.50
2023-02-19T06:59:48.790Z,99847.16
2023-02-19T07:02:56.688Z,99854.94
2023-02-19T07:06:01.049Z,99831.75
2023-02-19T07:09:05.824Z,99835.25
2023-02-19T07:12:10.237Z,99833.97
2023-02-19T07:15:13.191Z,99833.87
2023-02-19T07:18:16.385Z,99818.59
2023-02-19T07:21:19.838Z,99816.97
2023-02-19T07:24:23.100Z,99808.50
2023-02-19T07:27:26.026Z,99807.47
2023-02-19T07:30:30.623Z,99821.88
2023-02-19T07:33:33.624Z,99823.28
2023-02-19T07:36:37.855Z,99829.94
2023-02-19T07:39:40.823Z,99823.56
2023-02-19T07:42:44.061Z,99827.00
2023-02-19T07:45:47.245Z,99830.12
2023-02-19T07:48:50.577Z,99841.00
2023-02-19T07:51:53.693Z,99846.78
2023-02-19T07:54:56.928Z,99845.62
2023-02-19T07:58:00.858Z,99859.66
2023-02-19T08:01:18.424Z,99852.56
2023-02-19T08:04:21.991Z,99849.06
2023-02-19T08:07:24.860Z,99855.63
2023-02-19T08:10:47.356Z,99865.91
2023-02-19T08:13:51.633Z,99869.16
2023-02-19T08:16:55.623Z,99871.41
2023-02-19T08:19:58.682Z,99870.97
2023-02-19T08:23:02.961Z,99869.41
2023-02-19T08:26:06.755Z,99860.09
2023-02-19T08:29:10.144Z,99853.06
2023-02-19T08:32:43.976Z,99861.97
2023-02-19T08:36:15.965Z,99844.78
2023-02-19T08:39:21.041Z,99859.66
2023-02-19T08:42:25.471Z,99836.28
2023-02-19T08:45:28.411Z,99843.00
2023-02-19T08:48:33.191Z,99846.31
2023-02-19T08:51:36.160Z,99840.72
2023-02-19T08:54:42.113Z,99843.63
2023-02-19T08:57:45.860Z,99847.38
2023-02-19T09:00:49.164Z,99850.75
2023-02-19T09:03:53.306Z,99848.87
2023-02-19T09:06:56.551Z,99841.25
2023-02-19T09:10:00.793Z,99849.37
2023-02-19T09:13:04.112Z,99844.69
2023-02-19T09:16:07.267Z,99843.50
2023-02-19T09:19:10.485Z,99841.75
2023-02-19T09:22:13.156Z,99844.78
2023-02-19T09:25:16.395Z,99847.41
2023-02-19T09:28:19.423Z,99849.37
2023-02-19T09:31:22.783Z,99838.44
2023-02-19T09:34:27.175Z,99826.34
2023-02-19T09:37:31.554Z,99822.22
2023-02-19T09:40:37.929Z,99825.13
2023-02-19T09:43:41.128Z,99815.06
2023-02-19T09:46:49.842Z,99809.13
2023-02-19T09:49:59.193Z,99807.09
2023-02-19T09:53:05.177Z,99816.72
2023-02-19T09:56:09.189Z,99818.81
2023-02-19T09:59:20.020Z,99816.72
2023-02-19T10:02:26.051Z,99801.44
2023-02-19T10:05:30.140Z,99807.00
2023-02-19T10:08:38.386Z,99799.69
2023-02-19T10:11:42.432Z,99800.84
2023-02-19T10:14:49.899Z,99801.81
2023-02-19T10:17:53.351Z,99796.81
2023-02-19T10:20:57.702Z,99806.97
2023-02-19T10:24:03.417Z,99796.09
2023-02-19T10:27:12.225Z,99802.25
2023-02-19T10:30:24.321Z,99799.97
2023-02-19T10:33:28.249Z,99796.81
2023-02-19T10:36:33.999Z,99787.19
2023-02-19T10:39:42.372Z,99789.47
2023-02-19T10:42:52.956Z,99794.22
2023-02-19T10:45:57.234Z,99781.47
2023-02-19T10:49:05.008Z,99792.41
2023-02-19T10:52:31.220Z,99784.03
2023-02-19T10:55:38.023Z,99782.63
2023-02-19T10:58:44.994Z,99783.06
2023-02-19T11:01:56.952Z,99771.53
2023-02-19T11:05:16.224Z,99780.09
2023-02-19T11:08:23.937Z,99762.25
2023-02-19T11:11:30.595Z,99774.72
2023-02-19T11:14:35.259Z,99753.75
2023-02-19T11:17:38.793Z,99747.53
2023-02-19T11:21:00.496Z,99739.00
2023-02-19T11:24:04.645Z,99744.84
2023-02-19T11:27:18.716Z,99723.81
2023-02-19T11:30:35.753Z,99715.28
2023-02-19T11:34:04.728Z,99719.13
2023-02-19T11:37:13.989Z,99713.31
2023-02-19T11:40:18.079Z,99700.50
2023-02-19T11:43:28.381Z,99707.88
2023-02-19T11:46:47.859Z,99688.78
2023-02-19T11:50:01.099Z,99680.53
2023-02-19T11:53:05.916Z,99683.69
2023-02-19T11:56:34.200Z,99672.84
2023-02-19T11:59:56.315Z,99674.00
2023-02-19T12:03:22.958Z,99671.66
2023-02-19T12:06:35.002Z,99675.44
2023-02-19T12:09:49.313Z,99680.94
2023-02-19T12:13:17.481Z,99666.59
2023-02-19T12:16:31.536Z,99689.50
2023-02-19T12:19:45.276Z,99687.25
2023-02-19T12:22:54.525Z,99677.81
2023-02-19T12:26:31.264Z,99703.41
2023-02-19T12:29:41.755Z,99677.81
2023-02-19T12:33:07.408Z,99680.97
2023-02-19T12:36:20.372Z,99689.19
2023-02-19T12:39:40.613Z,99678.72
2023-02-19T12:42:57.112Z,99680.13
2023-02-19T12:46:07.870Z,99675.06
2023-02-19T12:49:32.526Z,99673.91
2023-02-19T12:52:42.393Z,99653.25
2023-02-19T12:55:46.890Z,99651.50
2023-02-19T12:58:54.704Z,99672.78
2023-02-19T13:02:11.720Z,99666.63
2023-02-19T13:05:39.076Z,99662.75
2023-02-19T13:09:06.307Z,99674.41
2023-02-19T13:12:19.191Z,99665.41
2023-02-19T13:15:35.355Z,99647.91
2023-02-19T13:18:49.026Z,99655.38
2023-02-19T13:22:41.489Z,99656.16
2023-02-19T13:26:11.865Z,99660.81
2023-02-19T13:29:18.487Z,99656.94
2023-02-19T13:33:00.109Z,99636.69
2023-02-19T13:36:09.891Z,99648.00
2023-02-19T13:39:17.909Z,99713.31
2023-02-19T13:42:34.949Z,99685.34
2023-02-19T13:45:42.749Z,99698.91
2023-02-19T13:48:46.525Z,99683.31
2023-02-19T13:51:58.437Z,99712.44
2023-02-19T13:55:41.532Z,99723.88
2023-02-19T13:59:01.777Z,99705.19
2023-02-19T14:02:05.885Z,99731.03
2023-02-19T14:05:11.903Z,99752.31
2023-02-19T14:08:48.296Z,99813.66
2023-02-19T14:12:10.890Z,99752.59
2023-02-19T14:15:45.494Z,99753.00
2023-02-19T14:18:50.967Z,99764.16
2023-02-19T14:21:55.122Z,99762.50
2023-02-19T14:24:59.847Z,99750.78
2023-02-19T14:28:05.972Z,99758.59
2023-02-19T14:31:18.293Z,99766.50
2023-02-19T14:34:28.470Z,99766.94
2023-02-19T14:37:33.409Z,99772.03
2023-02-19T14:40:39.805Z,99758.38
2023-02-19T14:43:45.433Z,99762.16
2023-02-19T14:47:04.129Z,99780.94
2023-02-19T14:50:16.470Z,99794.00
2023-02-19T14:53:21.533Z,99803.56
2023-02-19T14:56:33.324Z,99803.06
2023-02-19T14:59:37.934Z,99781.97
2023-02-19T15:02:43.843Z,99808.59
2023-02-19T15:05:49.776Z,99823.31
2023-02-19T15:09:00.436Z,99820.53
2023-02-19T15:12:05.322Z,99817.72
2023-02-19T15:15:21.276Z,99817.31
2023-02-19T15:18:27.357Z,99819.88
2023-02-19T15:21:40.001Z,99821.13
2023-02-19T15:24:48.684Z,99811.78
2023-02-19T15:27:53.674Z,99820.66
2023-02-19T15:30:59.108Z,99824.06
2023-02-19T15:34:04.120Z,99845.41
2023-02-19T15:37:11.391Z,99847.78
2023-02-19T15:40:17.148Z,99849.72
2023-02-19T15:43:32.514Z,99846.53
2023-02-19T15:46:37.524Z,99849.69
2023-02-19T15:49:57.878Z,99873.66
2023-02-19T15:53:13.337Z,99866.34
2023-02-19T15:56:28.765Z,99870.91
2023-02-19T15:59:41.236Z,99881.31
2023-02-19T16:02:53.064Z,99894.41
2023-02-19T16:06:15.636Z,99892.31
2023-02-19T16:09:35.571Z,99896.91
2023-02-19T16:12:41.847Z,99884.47
2023-02-19T16:15:46.884Z,99907.47
2023-02-19T16:18:52.530Z,99892.44
2023-02-19T16:21:56.938Z,99899.50
2023-02-19T16:25:04.103Z,99900.75
2023-02-19T16:28:19.616Z,99890.31
2023-02-19T16:31:30.135Z,99902.34
2023-02-19T16:34:51.806Z,99912.44
2023-02-19T16:38:00.672Z,99899.78
2023-02-19T16:41:13.605Z,99930.00
2023-02-19T16:44:36.431Z,99937.78
2023-02-19T16:47:45.439Z,99930.72
2023-02-19T16:50:50.394Z,99960.47
2023-02-19T16:53:54.527Z,99966.31
2023-02-19T16:57:01.049Z,99954.13
2023-02-19T17:00:05.585Z,99939.13
2023-02-19T17:03:13.510Z,99937.56
2023-02-19T17:06:17.719Z,99956.69
2023-02-19T17:09:23.396Z,99978.47
2023-02-19T17:12:28.005Z,99959.03
2023-02-19T17:15:32.871Z,99952.06
2023-02-19T17:18:37.856Z,99965.16
2023-02-19T17:21:42.992Z,99981.53
2023-02-19T17:24:48.453Z,99985.22
2023-02-19T17:27:52.699Z,100014.94
2023-02-19T17:30:56.915Z,100013.91
2023-02-19T17:34:01.038Z,99998.25
2023-02-19T17:37:06.571Z,99983.59
2023-02-19T17:40:32.860Z,99986.37
2023-02-19T17:43:38.478Z,100000.56
2023-02-19T17:46:59.626Z,100009.59
2023-02-19T17:50:07.653Z,100003.44
2023-02-19T17:53:12.670Z,100006.22
2023-02-19T17:56:21.879Z,99998.81
2023-02-19T17:59:27.784Z,100015.72
2023-02-19T18:02:32.939Z,100013.97
2023-02-19T18:05:37.812Z,100037.31
2023-02-19T18:09:05.217Z,100033.50
2023-02-19T18:12:11.463Z,100030.16
2023-02-19T18:15:22.671Z,100046.72
2023-02-19T18:18:38.558Z,100046.50
2023-02-19T18:21:49.947Z,100046.50
2023-02-19T18:25:11.966Z,100034.41
2023-02-19T18:28:16.063Z,100027.44
2023-02-19T18:34:40.282Z,100058.84
2023-02-19T18:37:54.799Z,100050.91
2023-02-19T18:41:08.904Z,100053.38
2023-02-19T18:44:27.133Z,100069.25
2023-02-19T18:47:40.130Z,100066.31
2023-02-19T18:50:56.599Z,100080.19
2023-02-19T18:54:18.013Z,100094.13
2023-02-19T18:57:38.162Z,100114.41
2023-02-19T19:00:44.893Z,100115.91
2023-02-19T19:03:49.139Z,100117.91
2023-02-19T19:06:56.449Z,100137.16
2023-02-19T19:10:08.202Z,100136.25
2023-02-19T19:13:16.434Z,100131.31
2023-02-19T19:16:42.782Z,100124.34
2023-02-19T19:19:49.549Z,100144.78
2023-02-19T19:22:54.667Z,100135.47
2023-02-19T19:26:00.083Z,100134.78
2023-02-19T19:29:09.552Z,100156.59
2023-02-19T19:32:18.292Z,100159.59
2023-02-19T19:35:32.070Z,100145.00
2023-02-19T19:38:38.390Z,100151.28
2023-02-19T19:41:53.039Z,100154.78
2023-02-19T19:44:59.404Z,100179.50
2023-02-19T19:48:05.845Z,100180.63
2023-02-19T19:51:10.923Z,100180.63
2023-02-19T19:54:16.833Z,100199.38
2023-02-19T19:57:23.162Z,100214.69
2023-02-19T20:00:29.589Z,100204.22
2023-02-19T20:03:35.263Z,100239.75
2023-02-19T20:06:41.387Z,100225.81
2023-02-19T20:09:50.248Z,100211.88
2023-02-19T20:12:54.474Z,100224.97
2023-02-19T20:16:04.804Z,100241.72
2023-02-19T20:19:09.709Z,100235.84
2023-02-19T20:22:16.844Z,100261.81
2023-02-19T20:25:22.200Z,100258.69
2023-02-19T20:28:26.549Z,100258.66
2023-02-19T20:31:32.847Z,100271.41
2023-02-19T20:34:38.452Z,100292.38
2023-02-19T20:37:50.914Z,100274.37
2023-02-19T20:40:56.673Z,100275.03
2023-02-19T20:44:04.716Z,100307.56
2023-02-19T20:47:12.092Z,100313.72
2023-02-19T20:50:19.364Z,100317.12
2023-02-19T20:53:24.248Z,100324.66
2023-02-19T20:56:30.171Z,100342.91
2023-02-19T20:59:43.522Z,100341.81
2023-02-19T21:02:47.580Z,100352.78
2023-02-19T21:05:54.379Z,100363.41
2023-02-19T21:08:58.846Z,100385.59
2023-02-19T21:12:03.523Z,100385.31
2023-02-19T21:15:09.015Z,100374.84
2023-02-19T21:18:13.239Z,100385.78
2023-02-19T21:21:20.684Z,100391.19
2023-02-19T21:24:27.057Z,100386.66
2023-02-19T21:27:30.974Z,100396.47
2023-02-19T21:30:35.163Z,100399.00
2023-02-19T21:33:38.829Z,100416.41
2023-02-19T21:36:44.142Z,100424.13
2023-02-19T21:39:47.924Z,100425.41
2023-02-19T21:42:52.556Z,100424.16
2023-02-19T21:45:57.800Z,100437.44
2023-02-19T21:49:01.684Z,100436.00
2023-02-19T21:52:04.968Z,100432.19
2023-02-19T21:55:10.499Z,100437.72
2023-02-19T21:58:15.988Z,100434.41
2023-02-19T22:01:24.324Z,100434.72
2023-02-19T22:04:27.983Z,100447.66
2023-02-19T22:07:31.061Z,100440.22
2023-02-19T22:10:34.694Z,100438.50
2023-02-19T22:13:37.739Z,100451.56
2023-02-19T22:16:41.275Z,100457.28
2023-02-19T22:19:44.270Z,100450.75
2023-02-19T22:22:47.676Z,100469.69
2023-02-19T22:25:50.678Z,100472.88
2023-02-19T22:28:54.758Z,100483.72
2023-02-19T22:31:57.993Z,100485.63
2023-02-19T22:35:01.619Z,100494.81
2023-02-19T22:38:04.695Z,100504.63
2023-02-19T22:41:08.004Z,100494.22
2023-02-19T22:44:11.577Z,100502.25
2023-02-19T22:47:15.340Z,100510.84
2023-02-19T22:50:22.484Z,100509.78
2023-02-19T22:53:26.681Z,100511.97
2023-02-19T22:56:29.722Z,100525.84
2023-02-19T22:59:33.696Z,100527.69
2023-02-19T23:02:36.701Z,100536.63
2023-02-19T23:05:40.132Z,100538.69
2023-02-19T23:08:43.974Z,100542.78
2023-02-19T23:11:47.916Z,100539.31
2023-02-19T23:14:50.916Z,100536.75
2023-02-19T23:17:54.316Z,100541.03
2023-02-19T23:20:57.447Z,100547.66
2023-02-19T23:24:00.886Z,100547.19
2023-02-19T23:27:03.879Z,100551.44
2023-02-19T23:30:07.675Z,100546.13
2023-02-19T23:33:10.736Z,100554.38
2023-02-19T23:36:15.086Z,100557.06
2023-02-19T23:39:20.475Z,100560.81
2023-02-19T23:42:23.761Z,100562.72
2023-02-19T23:45:27.014Z,100555.72
2023-02-19T23:48:30.460Z,100555.50
2023-02-19T23:51:33.456Z,100562.37
2023-02-19T23:54:36.703Z,100564.06
2023-02-19T23:57:40.084Z,100563.81
